Portada
METAR-TAF:

METAR-TAF

Aeropuertos :

Córdoba, España

Aeropuerto de Córdoba

latitud: 37-51N, longitud: 004-51W, altitud: 90 m

Observación

El informe se hizo hace 20 minutos, a las 11:00 UTC
Viento 7 kt del este, variando entre noreste y este-sureste
Temperatura 15°C
Humedad 44%
Presión 1021 hPa
Visibilidad 10 km o más
sin nubes por debajo de 1500 m y sin presencia de cumulonimbus.

METAR: LEBA 231100Z 08007KT 050V110 CAVOK 15/03 Q1021

Hora: 12:20 (11:20 UTC)

Pronóstico

El informe se hizo hace 3 horas y 20 minutos, a las 08:00 UTC
Pronóstico válido del 23 a las 09 UTC al 23 a las 18 UTC
Viento 5 kt del este
Visibilidad 10 km o más
sin nubes por debajo de 1500 m y sin presencia de cumulonimbus.

TAF: LEBA 230800Z 2309/2318 08005KT CAVOK

Observaciones y pronósticos meteorológicos de más de 4000 aeropuertos (mensajes METAR y TAF).

Los puntos amarillos y rojos representan las estaciones disponibles.

Ponga el ratón en el punto deseado para ver el nombre de la estación.

Haga clic para ver las observaciones y los pronósticos meteorológicos.

Para cambiar el mapa : haga clic en los botones verdes con una cruz de color negro para hacer un zoom, en el botón verde con un guión para alejar o en las flechas verdes para mapas adyacentes.


METAR-TAF: